sensor_id;sensor_type;location;lat;lon;timestamp;P1;durP1;ratioP1;P2;durP2;ratioP2
673;SDS011;319;48.764;9.174;2023-09-19T00:02:04;4.23;;;4.13;;
673;SDS011;319;48.764;9.174;2023-09-19T00:04:33;3.90;;;3.80;;
673;SDS011;319;48.764;9.174;2023-09-19T00:06:59;5.07;;;4.97;;
673;SDS011;319;48.764;9.174;2023-09-19T00:09:28;4.30;;;4.20;;
673;SDS011;319;48.764;9.174;2023-09-19T00:11:55;4.20;;;4.10;;
673;SDS011;319;48.764;9.174;2023-09-19T00:14:24;3.50;;;3.40;;
673;SDS011;319;48.764;9.174;2023-09-19T00:16:51;4.30;;;4.20;;
673;SDS011;319;48.764;9.174;2023-09-19T00:19:19;3.30;;;3.20;;
673;SDS011;319;48.764;9.174;2023-09-19T00:21:47;3.30;;;3.20;;
673;SDS011;319;48.764;9.174;2023-09-19T00:24:14;2.20;;;2.20;;
673;SDS011;319;48.764;9.174;2023-09-19T00:26:42;1.80;;;1.80;;
673;SDS011;319;48.764;9.174;2023-09-19T00:29:11;1.27;;;1.27;;
673;SDS011;319;48.764;9.174;2023-09-19T00:31:42;2.10;;;2.10;;
673;SDS011;319;48.764;9.174;2023-09-19T00:34:09;2.40;;;2.40;;
673;SDS011;319;48.764;9.174;2023-09-19T00:36:36;4.57;;;4.47;;
673;SDS011;319;48.764;9.174;2023-09-19T00:39:05;1.70;;;1.70;;
673;SDS011;319;48.764;9.174;2023-09-19T00:41:33;0.90;;;0.90;;
673;SDS011;319;48.764;9.174;2023-09-19T00:44:00;1.00;;;1.00;;
673;SDS011;319;48.764;9.174;2023-09-19T00:46:28;0.90;;;0.90;;
673;SDS011;319;48.764;9.174;2023-09-19T00:48:57;1.37;;;1.37;;
673;SDS011;319;48.764;9.174;2023-09-19T00:51:24;7.13;;;6.93;;
673;SDS011;319;48.764;9.174;2023-09-19T00:53:52;3.60;;;3.50;;
673;SDS011;319;48.764;9.174;2023-09-19T00:56:21;3.30;;;3.20;;
673;SDS011;319;48.764;9.174;2023-09-19T00:58:48;2.37;;;2.37;;
673;SDS011;319;48.764;9.174;2023-09-19T01:01:15;2.53;;;2.53;;
673;SDS011;319;48.764;9.174;2023-09-19T01:03:42;3.50;;;3.40;;
673;SDS011;319;48.764;9.174;2023-09-19T01:06:10;3.70;;;3.60;;
673;SDS011;319;48.764;9.174;2023-09-19T01:08:37;3.10;;;3.00;;
673;SDS011;319;48.764;9.174;2023-09-19T01:11:06;2.60;;;2.60;;
673;SDS011;319;48.764;9.174;2023-09-19T01:13:42;3.47;;;3.37;;
673;SDS011;319;48.764;9.174;2023-09-19T01:16:16;4.20;;;4.10;;
673;SDS011;319;48.764;9.174;2023-09-19T01:18:52;3.90;;;3.80;;
673;SDS011;319;48.764;9.174;2023-09-19T01:21:29;3.20;;;3.10;;
673;SDS011;319;48.764;9.174;2023-09-19T01:24:14;4.10;;;4.00;;
673;SDS011;319;48.764;9.174;2023-09-19T01:26:56;3.30;;;3.20;;
673;SDS011;319;48.764;9.174;2023-09-19T01:29:42;2.87;;;2.77;;
673;SDS011;319;48.764;9.174;2023-09-19T01:32:13;3.00;;;2.90;;
673;SDS011;319;48.764;9.174;2023-09-19T01:34:45;2.67;;;2.67;;
673;SDS011;319;48.764;9.174;2023-09-19T01:37:13;2.67;;;2.67;;
673;SDS011;319;48.764;9.174;2023-09-19T01:39:44;3.50;;;3.40;;
673;SDS011;319;48.764;9.174;2023-09-19T01:42:15;5.33;;;5.23;;
673;SDS011;319;48.764;9.174;2023-09-19T01:44:51;4.50;;;4.40;;
673;SDS011;319;48.764;9.174;2023-09-19T01:47:26;4.07;;;3.97;;
673;SDS011;319;48.764;9.174;2023-09-19T01:49:59;3.70;;;3.60;;
673;SDS011;319;48.764;9.174;2023-09-19T01:52:38;5.47;;;5.37;;
673;SDS011;319;48.764;9.174;2023-09-19T01:55:11;5.43;;;5.33;;
673;SDS011;319;48.764;9.174;2023-09-19T01:57:45;4.00;;;3.90;;
673;SDS011;319;48.764;9.174;2023-09-19T02:00:52;4.80;;;4.70;;
673;SDS011;319;48.764;9.174;2023-09-19T02:03:25;5.00;;;4.90;;
673;SDS011;319;48.764;9.174;2023-09-19T02:05:53;4.90;;;4.80;;
673;SDS011;319;48.764;9.174;2023-09-19T02:08:21;4.80;;;4.70;;
673;SDS011;319;48.764;9.174;2023-09-19T02:10:49;5.70;;;5.60;;
673;SDS011;319;48.764;9.174;2023-09-19T02:13:17;4.97;;;4.87;;
673;SDS011;319;48.764;9.174;2023-09-19T02:15:45;5.10;;;5.00;;
673;SDS011;319;48.764;9.174;2023-09-19T02:18:12;4.23;;;4.13;;
673;SDS011;319;48.764;9.174;2023-09-19T02:20:41;3.93;;;3.83;;
673;SDS011;319;48.764;9.174;2023-09-19T02:23:08;1.60;;;1.60;;
673;SDS011;319;48.764;9.174;2023-09-19T02:25:35;2.50;;;2.50;;
673;SDS011;319;48.764;9.174;2023-09-19T02:28:03;3.60;;;3.50;;
673;SDS011;319;48.764;9.174;2023-09-19T02:30:30;1.90;;;1.90;;
673;SDS011;319;48.764;9.174;2023-09-19T02:32:57;4.33;;;4.23;;
673;SDS011;319;48.764;9.174;2023-09-19T02:35:26;5.80;;;5.70;;
673;SDS011;319;48.764;9.174;2023-09-19T02:37:54;5.40;;;5.30;;
673;SDS011;319;48.764;9.174;2023-09-19T02:40:21;6.20;;;6.10;;
673;SDS011;319;48.764;9.174;2023-09-19T02:42:52;6.30;;;6.20;;
673;SDS011;319;48.764;9.174;2023-09-19T02:45:20;6.20;;;6.10;;
673;SDS011;319;48.764;9.174;2023-09-19T02:47:47;5.50;;;5.40;;
673;SDS011;319;48.764;9.174;2023-09-19T02:50:14;5.10;;;5.00;;
673;SDS011;319;48.764;9.174;2023-09-19T02:52:43;5.80;;;5.70;;
673;SDS011;319;48.764;9.174;2023-09-19T02:55:13;6.90;;;6.70;;
673;SDS011;319;48.764;9.174;2023-09-19T02:57:45;6.20;;;6.10;;
673;SDS011;319;48.764;9.174;2023-09-19T03:00:12;5.17;;;5.07;;
673;SDS011;319;48.764;9.174;2023-09-19T03:02:39;6.27;;;6.17;;
673;SDS011;319;48.764;9.174;2023-09-19T03:05:06;6.50;;;6.33;;
673;SDS011;319;48.764;9.174;2023-09-19T03:07:36;6.60;;;6.40;;
673;SDS011;319;48.764;9.174;2023-09-19T03:10:03;3.90;;;3.80;;
673;SDS011;319;48.764;9.174;2023-09-19T03:12:32;3.57;;;3.47;;
673;SDS011;319;48.764;9.174;2023-09-19T03:14:59;5.50;;;5.40;;
673;SDS011;319;48.764;9.174;2023-09-19T03:17:26;5.50;;;5.40;;
673;SDS011;319;48.764;9.174;2023-09-19T03:19:53;5.10;;;5.00;;
673;SDS011;319;48.764;9.174;2023-09-19T03:22:20;5.80;;;5.70;;
673;SDS011;319;48.764;9.174;2023-09-19T03:24:47;4.27;;;4.17;;
673;SDS011;319;48.764;9.174;2023-09-19T03:27:13;5.30;;;5.20;;
673;SDS011;319;48.764;9.174;2023-09-19T03:29:42;5.30;;;5.20;;
673;SDS011;319;48.764;9.174;2023-09-19T03:32:09;5.50;;;5.40;;
673;SDS011;319;48.764;9.174;2023-09-19T03:34:36;6.13;;;6.03;;
673;SDS011;319;48.764;9.174;2023-09-19T03:37:07;7.20;;;7.00;;
673;SDS011;319;48.764;9.174;2023-09-19T03:39:34;5.50;;;5.40;;
673;SDS011;319;48.764;9.174;2023-09-19T03:42:00;6.80;;;6.60;;
673;SDS011;319;48.764;9.174;2023-09-19T03:44:28;6.73;;;6.53;;
673;SDS011;319;48.764;9.174;2023-09-19T03:46:56;6.27;;;6.17;;
673;SDS011;319;48.764;9.174;2023-09-19T03:49:22;6.07;;;5.97;;
673;SDS011;319;48.764;9.174;2023-09-19T03:51:49;4.60;;;4.50;;
673;SDS011;319;48.764;9.174;2023-09-19T03:54:16;4.37;;;4.27;;
673;SDS011;319;48.764;9.174;2023-09-19T03:56:44;6.83;;;6.63;;
673;SDS011;319;48.764;9.174;2023-09-19T03:59:11;5.50;;;5.40;;
673;SDS011;319;48.764;9.174;2023-09-19T04:01:41;5.10;;;5.00;;
673;SDS011;319;48.764;9.174;2023-09-19T04:04:09;6.80;;;6.60;;
673;SDS011;319;48.764;9.174;2023-09-19T04:06:38;5.20;;;5.10;;
673;SDS011;319;48.764;9.174;2023-09-19T04:09:04;5.10;;;5.00;;
673;SDS011;319;48.764;9.174;2023-09-19T04:11:32;5.70;;;5.60;;
673;SDS011;319;48.764;9.174;2023-09-19T04:13:59;5.07;;;4.97;;
673;SDS011;319;48.764;9.174;2023-09-19T04:16:28;4.97;;;4.87;;
673;SDS011;319;48.764;9.174;2023-09-19T04:18:55;4.20;;;4.10;;
673;SDS011;319;48.764;9.174;2023-09-19T04:21:23;6.50;;;6.30;;
673;SDS011;319;48.764;9.174;2023-09-19T04:23:50;5.80;;;5.70;;
673;SDS011;319;48.764;9.174;2023-09-19T04:26:17;4.87;;;4.77;;
673;SDS011;319;48.764;9.174;2023-09-19T04:28:44;6.80;;;6.60;;
673;SDS011;319;48.764;9.174;2023-09-19T04:31:11;6.30;;;6.20;;
673;SDS011;319;48.764;9.174;2023-09-19T04:33:39;5.70;;;5.60;;
673;SDS011;319;48.764;9.174;2023-09-19T04:36:06;6.00;;;5.90;;
673;SDS011;319;48.764;9.174;2023-09-19T04:38:34;6.37;;;6.27;;
673;SDS011;319;48.764;9.174;2023-09-19T04:41:01;6.80;;;6.60;;
673;SDS011;319;48.764;9.174;2023-09-19T04:43:29;5.73;;;5.63;;
673;SDS011;319;48.764;9.174;2023-09-19T04:45:55;5.80;;;5.70;;
673;SDS011;319;48.764;9.174;2023-09-19T04:48:25;5.27;;;5.17;;
673;SDS011;319;48.764;9.174;2023-09-19T04:50:54;5.20;;;5.10;;
673;SDS011;319;48.764;9.174;2023-09-19T04:53:21;4.63;;;4.53;;
673;SDS011;319;48.764;9.174;2023-09-19T04:55:50;5.97;;;5.87;;
673;SDS011;319;48.764;9.174;2023-09-19T04:58:20;3.73;;;3.63;;
673;SDS011;319;48.764;9.174;2023-09-19T05:00:47;6.90;;;6.70;;
673;SDS011;319;48.764;9.174;2023-09-19T05:03:16;7.60;;;7.40;;
673;SDS011;319;48.764;9.174;2023-09-19T05:05:45;7.10;;;6.90;;
673;SDS011;319;48.764;9.174;2023-09-19T05:08:12;3.20;;;3.10;;
673;SDS011;319;48.764;9.174;2023-09-19T05:10:40;2.13;;;2.13;;
673;SDS011;319;48.764;9.174;2023-09-19T05:13:08;3.50;;;3.40;;
673;SDS011;319;48.764;9.174;2023-09-19T05:15:35;3.00;;;2.90;;
673;SDS011;319;48.764;9.174;2023-09-19T05:18:02;12.23;;;11.93;;
673;SDS011;319;48.764;9.174;2023-09-19T05:20:31;12.90;;;12.57;;
673;SDS011;319;48.764;9.174;2023-09-19T05:23:00;0.90;;;0.90;;
673;SDS011;319;48.764;9.174;2023-09-19T05:25:27;2.30;;;2.30;;
673;SDS011;319;48.764;9.174;2023-09-19T05:27:56;8.40;;;8.20;;
673;SDS011;319;48.764;9.174;2023-09-19T05:30:25;12.87;;;12.53;;
673;SDS011;319;48.764;9.174;2023-09-19T05:32:54;13.20;;;12.80;;
673;SDS011;319;48.764;9.174;2023-09-19T05:35:22;13.27;;;12.87;;
673;SDS011;319;48.764;9.174;2023-09-19T05:37:49;12.60;;;12.30;;
673;SDS011;319;48.764;9.174;2023-09-19T05:40:17;8.17;;;7.97;;
673;SDS011;319;48.764;9.174;2023-09-19T05:42:44;9.60;;;9.40;;
673;SDS011;319;48.764;9.174;2023-09-19T05:45:11;11.93;;;11.63;;
673;SDS011;319;48.764;9.174;2023-09-19T05:47:48;8.37;;;8.17;;
673;SDS011;319;48.764;9.174;2023-09-19T05:50:16;8.10;;;7.90;;
673;SDS011;319;48.764;9.174;2023-09-19T05:52:51;10.47;;;10.17;;
673;SDS011;319;48.764;9.174;2023-09-19T05:55:18;10.50;;;10.20;;
673;SDS011;319;48.764;9.174;2023-09-19T05:57:48;11.90;;;11.60;;
673;SDS011;319;48.764;9.174;2023-09-19T06:00:19;11.83;;;11.53;;
673;SDS011;319;48.764;9.174;2023-09-19T06:02:52;1.50;;;1.50;;
673;SDS011;319;48.764;9.174;2023-09-19T06:05:22;0.90;;;0.90;;
673;SDS011;319;48.764;9.174;2023-09-19T06:07:51;0.93;;;0.93;;
673;SDS011;319;48.764;9.174;2023-09-19T06:10:18;0.90;;;0.90;;
673;SDS011;319;48.764;9.174;2023-09-19T06:12:47;1.00;;;1.00;;
673;SDS011;319;48.764;9.174;2023-09-19T06:15:14;0.90;;;0.90;;
673;SDS011;319;48.764;9.174;2023-09-19T06:17:46;1.00;;;1.00;;
673;SDS011;319;48.764;9.174;2023-09-19T06:20:15;0.90;;;0.90;;
673;SDS011;319;48.764;9.174;2023-09-19T06:22:43;1.10;;;1.10;;
673;SDS011;319;48.764;9.174;2023-09-19T06:25:11;1.00;;;1.00;;
673;SDS011;319;48.764;9.174;2023-09-19T06:27:44;1.00;;;1.00;;
673;SDS011;319;48.764;9.174;2023-09-19T06:30:11;1.00;;;1.00;;
673;SDS011;319;48.764;9.174;2023-09-19T06:32:38;1.10;;;1.10;;
673;SDS011;319;48.764;9.174;2023-09-19T06:35:05;1.30;;;1.30;;
673;SDS011;319;48.764;9.174;2023-09-19T06:37:36;1.20;;;1.20;;
673;SDS011;319;48.764;9.174;2023-09-19T06:40:04;1.20;;;1.20;;
673;SDS011;319;48.764;9.174;2023-09-19T06:42:33;1.50;;;1.50;;
673;SDS011;319;48.764;9.174;2023-09-19T06:45:02;1.03;;;1.03;;
673;SDS011;319;48.764;9.174;2023-09-19T06:47:29;1.20;;;1.20;;
673;SDS011;319;48.764;9.174;2023-09-19T06:49:56;1.30;;;1.30;;
673;SDS011;319;48.764;9.174;2023-09-19T06:52:23;1.00;;;1.00;;
673;SDS011;319;48.764;9.174;2023-09-19T06:54:54;1.30;;;1.30;;
673;SDS011;319;48.764;9.174;2023-09-19T06:57:22;1.17;;;1.17;;
673;SDS011;319;48.764;9.174;2023-09-19T06:59:49;1.03;;;1.03;;
673;SDS011;319;48.764;9.174;2023-09-19T07:02:16;1.00;;;1.00;;
673;SDS011;319;48.764;9.174;2023-09-19T07:04:43;1.00;;;1.00;;
673;SDS011;319;48.764;9.174;2023-09-19T07:07:10;1.00;;;1.00;;
673;SDS011;319;48.764;9.174;2023-09-19T07:09:39;1.47;;;1.47;;
673;SDS011;319;48.764;9.174;2023-09-19T07:12:08;2.43;;;2.43;;
673;SDS011;319;48.764;9.174;2023-09-19T07:14:37;0.90;;;0.90;;
673;SDS011;319;48.764;9.174;2023-09-19T07:17:03;10.20;;;9.90;;
673;SDS011;319;48.764;9.174;2023-09-19T07:19:30;3.70;;;3.60;;
673;SDS011;319;48.764;9.174;2023-09-19T07:21:57;0.90;;;0.90;;
673;SDS011;319;48.764;9.174;2023-09-19T07:24:27;1.00;;;1.00;;
673;SDS011;319;48.764;9.174;2023-09-19T07:26:54;0.90;;;0.90;;
673;SDS011;319;48.764;9.174;2023-09-19T07:29:22;0.90;;;0.90;;
673;SDS011;319;48.764;9.174;2023-09-19T07:31:51;1.00;;;1.00;;
673;SDS011;319;48.764;9.174;2023-09-19T07:34:18;0.93;;;0.93;;
673;SDS011;319;48.764;9.174;2023-09-19T07:36:45;1.00;;;1.00;;
673;SDS011;319;48.764;9.174;2023-09-19T07:39:12;1.47;;;1.47;;
673;SDS011;319;48.764;9.174;2023-09-19T07:41:39;0.90;;;0.90;;
673;SDS011;319;48.764;9.174;2023-09-19T07:44:07;0.80;;;0.80;;
673;SDS011;319;48.764;9.174;2023-09-19T07:46:36;0.90;;;0.90;;
673;SDS011;319;48.764;9.174;2023-09-19T07:49:03;0.90;;;0.90;;
673;SDS011;319;48.764;9.174;2023-09-19T07:51:30;1.00;;;1.00;;
673;SDS011;319;48.764;9.174;2023-09-19T07:53:58;0.87;;;0.87;;
673;SDS011;319;48.764;9.174;2023-09-19T07:56:24;0.83;;;0.83;;
673;SDS011;319;48.764;9.174;2023-09-19T07:58:52;0.90;;;0.90;;
673;SDS011;319;48.764;9.174;2023-09-19T08:01:19;0.80;;;0.80;;
673;SDS011;319;48.764;9.174;2023-09-19T08:03:50;0.80;;;0.80;;
673;SDS011;319;48.764;9.174;2023-09-19T08:06:16;0.90;;;0.90;;
673;SDS011;319;48.764;9.174;2023-09-19T08:08:44;1.43;;;1.43;;
673;SDS011;319;48.764;9.174;2023-09-19T08:11:10;11.73;;;11.43;;
673;SDS011;319;48.764;9.174;2023-09-19T08:13:37;10.60;;;10.30;;
673;SDS011;319;48.764;9.174;2023-09-19T08:16:08;7.40;;;7.20;;
673;SDS011;319;48.764;9.174;2023-09-19T08:18:36;10.20;;;9.90;;
673;SDS011;319;48.764;9.174;2023-09-19T08:21:06;2.97;;;2.87;;
673;SDS011;319;48.764;9.174;2023-09-19T08:23:35;1.30;;;1.30;;
673;SDS011;319;48.764;9.174;2023-09-19T08:26:03;1.53;;;1.53;;
673;SDS011;319;48.764;9.174;2023-09-19T08:28:31;1.40;;;1.40;;
673;SDS011;319;48.764;9.174;2023-09-19T08:31:01;4.47;;;4.37;;
673;SDS011;319;48.764;9.174;2023-09-19T08:33:29;4.20;;;4.10;;
673;SDS011;319;48.764;9.174;2023-09-19T08:35:57;4.00;;;3.90;;
673;SDS011;319;48.764;9.174;2023-09-19T08:38:25;7.10;;;6.90;;
673;SDS011;319;48.764;9.174;2023-09-19T08:40:56;6.40;;;6.23;;
673;SDS011;319;48.764;9.174;2023-09-19T08:43:24;7.20;;;7.00;;
673;SDS011;319;48.764;9.174;2023-09-19T08:45:51;7.57;;;7.37;;
673;SDS011;319;48.764;9.174;2023-09-19T08:48:24;6.57;;;6.40;;
673;SDS011;319;48.764;9.174;2023-09-19T08:50:54;7.00;;;6.80;;
673;SDS011;319;48.764;9.174;2023-09-19T08:53:29;6.13;;;6.03;;
673;SDS011;319;48.764;9.174;2023-09-19T08:56:03;5.77;;;5.67;;
673;SDS011;319;48.764;9.174;2023-09-19T08:58:38;4.50;;;4.40;;
673;SDS011;319;48.764;9.174;2023-09-19T09:01:12;8.80;;;8.60;;
673;SDS011;319;48.764;9.174;2023-09-19T09:03:41;8.90;;;8.70;;
673;SDS011;319;48.764;9.174;2023-09-19T09:06:12;12.37;;;12.07;;
673;SDS011;319;48.764;9.174;2023-09-19T09:08:43;12.30;;;12.00;;
673;SDS011;319;48.764;9.174;2023-09-19T09:11:10;4.47;;;4.37;;
673;SDS011;319;48.764;9.174;2023-09-19T09:13:37;7.47;;;7.27;;
673;SDS011;319;48.764;9.174;2023-09-19T09:16:06;6.70;;;6.50;;
673;SDS011;319;48.764;9.174;2023-09-19T09:18:33;5.97;;;5.87;;
673;SDS011;319;48.764;9.174;2023-09-19T09:21:00;4.20;;;4.10;;
673;SDS011;319;48.764;9.174;2023-09-19T09:23:29;10.00;;;9.73;;
673;SDS011;319;48.764;9.174;2023-09-19T09:25:58;9.50;;;9.30;;
673;SDS011;319;48.764;9.174;2023-09-19T09:28:28;10.20;;;9.90;;
673;SDS011;319;48.764;9.174;2023-09-19T09:30:56;11.70;;;11.40;;
673;SDS011;319;48.764;9.174;2023-09-19T09:33:25;12.23;;;11.93;;
673;SDS011;319;48.764;9.174;2023-09-19T09:35:54;13.70;;;13.30;;
673;SDS011;319;48.764;9.174;2023-09-19T09:38:23;13.00;;;12.70;;
673;SDS011;319;48.764;9.174;2023-09-19T09:40:58;10.93;;;10.63;;
673;SDS011;319;48.764;9.174;2023-09-19T09:43:31;9.30;;;9.10;;
673;SDS011;319;48.764;9.174;2023-09-19T09:46:07;11.70;;;11.40;;
673;SDS011;319;48.764;9.174;2023-09-19T09:48:56;14.30;;;13.90;;
673;SDS011;319;48.764;9.174;2023-09-19T09:51:45;14.13;;;13.73;;
673;SDS011;319;48.764;9.174;2023-09-19T09:54:22;14.50;;;14.10;;
673;SDS011;319;48.764;9.174;2023-09-19T09:56:54;13.90;;;13.50;;
673;SDS011;319;48.764;9.174;2023-09-19T10:02:16;12.67;;;12.37;;
673;SDS011;319;48.764;9.174;2023-09-19T10:04:50;12.83;;;12.53;;
673;SDS011;319;48.764;9.174;2023-09-19T10:07:24;9.00;;;8.80;;
673;SDS011;319;48.764;9.174;2023-09-19T10:09:56;12.47;;;12.17;;
673;SDS011;319;48.764;9.174;2023-09-19T10:12:31;13.40;;;13.00;;
673;SDS011;319;48.764;9.174;2023-09-19T10:14:58;10.00;;;9.73;;
673;SDS011;319;48.764;9.174;2023-09-19T10:17:29;10.87;;;10.57;;
673;SDS011;319;48.764;9.174;2023-09-19T10:19:57;12.60;;;12.30;;
673;SDS011;319;48.764;9.174;2023-09-19T10:22:31;5.33;;;5.23;;
673;SDS011;319;48.764;9.174;2023-09-19T10:25:00;12.00;;;11.70;;
673;SDS011;319;48.764;9.174;2023-09-19T10:27:28;2.03;;;2.03;;
673;SDS011;319;48.764;9.174;2023-09-19T10:30:02;3.37;;;3.27;;
673;SDS011;319;48.764;9.174;2023-09-19T10:32:33;8.80;;;8.60;;
673;SDS011;319;48.764;9.174;2023-09-19T10:35:02;13.80;;;13.40;;
673;SDS011;319;48.764;9.174;2023-09-19T10:37:31;13.73;;;13.33;;
673;SDS011;319;48.764;9.174;2023-09-19T10:40:00;10.60;;;10.30;;
673;SDS011;319;48.764;9.174;2023-09-19T10:42:27;12.00;;;11.70;;
673;SDS011;319;48.764;9.174;2023-09-19T10:44:56;10.60;;;10.30;;
673;SDS011;319;48.764;9.174;2023-09-19T10:47:25;13.40;;;13.00;;
673;SDS011;319;48.764;9.174;2023-09-19T10:49:51;13.77;;;13.37;;
673;SDS011;319;48.764;9.174;2023-09-19T10:52:20;11.43;;;11.13;;
673;SDS011;319;48.764;9.174;2023-09-19T10:54:50;7.70;;;7.50;;
673;SDS011;319;48.764;9.174;2023-09-19T10:57:22;8.40;;;8.20;;
673;SDS011;319;48.764;9.174;2023-09-19T11:00:03;8.80;;;8.60;;
673;SDS011;319;48.764;9.174;2023-09-19T11:06:00;10.50;;;10.20;;
673;SDS011;319;48.764;9.174;2023-09-19T11:11:47;3.73;;;3.63;;
673;SDS011;319;48.764;9.174;2023-09-19T11:14:30;2.57;;;2.53;;
673;SDS011;319;48.764;9.174;2023-09-19T11:20:15;11.53;;;11.23;;
673;SDS011;319;48.764;9.174;2023-09-19T11:23:17;10.70;;;10.40;;
673;SDS011;319;48.764;9.174;2023-09-19T11:25:53;12.40;;;12.10;;
673;SDS011;319;48.764;9.174;2023-09-19T11:28:30;11.60;;;11.30;;
673;SDS011;319;48.764;9.174;2023-09-19T11:30:57;4.30;;;4.20;;
673;SDS011;319;48.764;9.174;2023-09-19T11:33:26;4.20;;;4.10;;
673;SDS011;319;48.764;9.174;2023-09-19T11:35:58;5.30;;;5.20;;
673;SDS011;319;48.764;9.174;2023-09-19T11:41:37;8.40;;;8.20;;
673;SDS011;319;48.764;9.174;2023-09-19T11:47:02;9.60;;;9.40;;
673;SDS011;319;48.764;9.174;2023-09-19T11:49:32;8.33;;;8.13;;
673;SDS011;319;48.764;9.174;2023-09-19T11:51:59;8.80;;;8.60;;
673;SDS011;319;48.764;9.174;2023-09-19T11:54:30;9.30;;;9.10;;
673;SDS011;319;48.764;9.174;2023-09-19T11:56:58;10.17;;;9.87;;
673;SDS011;319;48.764;9.174;2023-09-19T11:59:26;10.53;;;10.23;;
673;SDS011;319;48.764;9.174;2023-09-19T12:01:54;5.13;;;5.03;;
673;SDS011;319;48.764;9.174;2023-09-19T12:04:34;5.97;;;5.87;;
673;SDS011;319;48.764;9.174;2023-09-19T12:07:03;4.80;;;4.70;;
673;SDS011;319;48.764;9.174;2023-09-19T12:09:35;5.10;;;5.00;;
673;SDS011;319;48.764;9.174;2023-09-19T12:12:04;5.70;;;5.60;;
673;SDS011;319;48.764;9.174;2023-09-19T12:14:31;4.93;;;4.83;;
673;SDS011;319;48.764;9.174;2023-09-19T12:16:58;8.90;;;8.70;;
673;SDS011;319;48.764;9.174;2023-09-19T12:19:26;7.40;;;7.20;;
673;SDS011;319;48.764;9.174;2023-09-19T12:21:55;9.20;;;9.00;;
673;SDS011;319;48.764;9.174;2023-09-19T12:24:24;8.50;;;8.30;;
673;SDS011;319;48.764;9.174;2023-09-19T12:26:54;4.97;;;4.87;;
673;SDS011;319;48.764;9.174;2023-09-19T12:29:29;4.90;;;4.80;;
673;SDS011;319;48.764;9.174;2023-09-19T12:31:57;8.30;;;8.10;;
673;SDS011;319;48.764;9.174;2023-09-19T12:34:25;5.27;;;5.17;;
673;SDS011;319;48.764;9.174;2023-09-19T12:37:07;2.03;;;2.03;;
673;SDS011;319;48.764;9.174;2023-09-19T12:39:41;6.77;;;6.57;;
673;SDS011;319;48.764;9.174;2023-09-19T12:42:13;8.37;;;8.17;;
673;SDS011;319;48.764;9.174;2023-09-19T12:44:41;4.77;;;4.67;;
673;SDS011;319;48.764;9.174;2023-09-19T12:47:13;6.87;;;6.67;;
673;SDS011;319;48.764;9.174;2023-09-19T12:50:07;6.20;;;6.10;;
673;SDS011;319;48.764;9.174;2023-09-19T12:52:40;6.50;;;6.30;;
673;SDS011;319;48.764;9.174;2023-09-19T12:55:07;7.40;;;7.20;;
673;SDS011;319;48.764;9.174;2023-09-19T12:57:54;7.10;;;6.90;;
673;SDS011;319;48.764;9.174;2023-09-19T13:00:34;5.80;;;5.70;;
673;SDS011;319;48.764;9.174;2023-09-19T13:05:53;6.50;;;6.30;;
673;SDS011;319;48.764;9.174;2023-09-19T13:08:23;6.23;;;6.13;;
673;SDS011;319;48.764;9.174;2023-09-19T13:11:01;6.03;;;5.93;;
673;SDS011;319;48.764;9.174;2023-09-19T13:13:31;6.23;;;6.13;;
673;SDS011;319;48.764;9.174;2023-09-19T13:15:58;6.50;;;6.30;;
673;SDS011;319;48.764;9.174;2023-09-19T13:18:27;4.30;;;4.20;;
673;SDS011;319;48.764;9.174;2023-09-19T13:21:07;5.43;;;5.33;;
673;SDS011;319;48.764;9.174;2023-09-19T13:23:38;6.00;;;5.90;;
673;SDS011;319;48.764;9.174;2023-09-19T13:26:05;6.60;;;6.40;;
673;SDS011;319;48.764;9.174;2023-09-19T13:28:33;6.93;;;6.73;;
673;SDS011;319;48.764;9.174;2023-09-19T13:31:01;5.20;;;5.10;;
673;SDS011;319;48.764;9.174;2023-09-19T13:33:27;8.50;;;8.30;;
673;SDS011;319;48.764;9.174;2023-09-19T13:35:54;8.90;;;8.70;;
673;SDS011;319;48.764;9.174;2023-09-19T13:38:22;7.70;;;7.50;;
673;SDS011;319;48.764;9.174;2023-09-19T13:40:50;6.43;;;6.27;;
673;SDS011;319;48.764;9.174;2023-09-19T13:43:17;6.93;;;6.73;;
673;SDS011;319;48.764;9.174;2023-09-19T13:45:44;8.13;;;7.93;;
673;SDS011;319;48.764;9.174;2023-09-19T13:48:11;6.70;;;6.50;;
673;SDS011;319;48.764;9.174;2023-09-19T13:50:38;9.77;;;9.57;;
673;SDS011;319;48.764;9.174;2023-09-19T13:53:07;8.47;;;8.27;;
673;SDS011;319;48.764;9.174;2023-09-19T13:55:34;7.63;;;7.43;;
673;SDS011;319;48.764;9.174;2023-09-19T13:58:02;8.80;;;8.60;;
673;SDS011;319;48.764;9.174;2023-09-19T14:00:31;8.80;;;8.60;;
673;SDS011;319;48.764;9.174;2023-09-19T14:02:59;8.60;;;8.40;;
673;SDS011;319;48.764;9.174;2023-09-19T14:05:26;7.27;;;7.07;;
673;SDS011;319;48.764;9.174;2023-09-19T14:07:54;8.50;;;8.30;;
673;SDS011;319;48.764;9.174;2023-09-19T14:10:22;7.67;;;7.47;;
673;SDS011;319;48.764;9.174;2023-09-19T14:12:49;7.13;;;6.93;;
673;SDS011;319;48.764;9.174;2023-09-19T14:15:17;6.57;;;6.37;;
673;SDS011;319;48.764;9.174;2023-09-19T14:17:44;7.77;;;7.57;;
673;SDS011;319;48.764;9.174;2023-09-19T14:20:11;7.17;;;6.97;;
673;SDS011;319;48.764;9.174;2023-09-19T14:22:38;7.47;;;7.27;;
673;SDS011;319;48.764;9.174;2023-09-19T14:25:04;7.20;;;7.00;;
673;SDS011;319;48.764;9.174;2023-09-19T14:27:32;8.20;;;8.00;;
673;SDS011;319;48.764;9.174;2023-09-19T14:29:59;6.83;;;6.63;;
673;SDS011;319;48.764;9.174;2023-09-19T14:32:27;7.53;;;7.33;;
673;SDS011;319;48.764;9.174;2023-09-19T14:34:53;7.70;;;7.50;;
673;SDS011;319;48.764;9.174;2023-09-19T14:37:20;8.30;;;8.10;;
673;SDS011;319;48.764;9.174;2023-09-19T14:39:47;7.00;;;6.80;;
673;SDS011;319;48.764;9.174;2023-09-19T14:42:14;9.13;;;8.93;;
673;SDS011;319;48.764;9.174;2023-09-19T14:44:42;8.90;;;8.70;;
673;SDS011;319;48.764;9.174;2023-09-19T14:47:09;9.37;;;9.17;;
673;SDS011;319;48.764;9.174;2023-09-19T14:49:39;7.70;;;7.50;;
673;SDS011;319;48.764;9.174;2023-09-19T14:52:07;9.07;;;8.87;;
673;SDS011;319;48.764;9.174;2023-09-19T14:54:35;8.77;;;8.57;;
673;SDS011;319;48.764;9.174;2023-09-19T14:57:03;7.47;;;7.27;;
673;SDS011;319;48.764;9.174;2023-09-19T14:59:30;7.30;;;7.10;;
673;SDS011;319;48.764;9.174;2023-09-19T15:01:57;7.10;;;6.90;;
673;SDS011;319;48.764;9.174;2023-09-19T15:04:24;9.27;;;9.07;;
673;SDS011;319;48.764;9.174;2023-09-19T15:06:52;8.50;;;8.30;;
673;SDS011;319;48.764;9.174;2023-09-19T15:09:20;7.30;;;7.10;;
673;SDS011;319;48.764;9.174;2023-09-19T15:11:47;7.00;;;6.80;;
673;SDS011;319;48.764;9.174;2023-09-19T15:14:13;8.43;;;8.23;;
673;SDS011;319;48.764;9.174;2023-09-19T15:16:40;8.43;;;8.23;;
673;SDS011;319;48.764;9.174;2023-09-19T15:19:08;8.40;;;8.20;;
673;SDS011;319;48.764;9.174;2023-09-19T15:21:36;8.40;;;8.20;;
673;SDS011;319;48.764;9.174;2023-09-19T15:24:05;6.70;;;6.50;;
673;SDS011;319;48.764;9.174;2023-09-19T15:26:34;6.80;;;6.60;;
673;SDS011;319;48.764;9.174;2023-09-19T15:29:04;9.33;;;9.13;;
673;SDS011;319;48.764;9.174;2023-09-19T15:31:31;8.40;;;8.20;;
673;SDS011;319;48.764;9.174;2023-09-19T15:33:58;9.10;;;8.90;;
673;SDS011;319;48.764;9.174;2023-09-19T15:36:25;8.53;;;8.33;;
673;SDS011;319;48.764;9.174;2023-09-19T15:38:56;7.87;;;7.67;;
673;SDS011;319;48.764;9.174;2023-09-19T15:41:26;6.60;;;6.40;;
673;SDS011;319;48.764;9.174;2023-09-19T15:43:54;6.90;;;6.70;;
673;SDS011;319;48.764;9.174;2023-09-19T15:46:21;8.60;;;8.40;;
673;SDS011;319;48.764;9.174;2023-09-19T15:48:47;8.60;;;8.40;;
673;SDS011;319;48.764;9.174;2023-09-19T15:51:15;7.37;;;7.17;;
673;SDS011;319;48.764;9.174;2023-09-19T15:53:43;5.90;;;5.80;;
673;SDS011;319;48.764;9.174;2023-09-19T15:56:12;2.50;;;2.50;;
673;SDS011;319;48.764;9.174;2023-09-19T15:58:40;2.73;;;2.63;;
673;SDS011;319;48.764;9.174;2023-09-19T16:01:09;4.90;;;4.80;;
673;SDS011;319;48.764;9.174;2023-09-19T16:03:36;8.00;;;7.80;;
673;SDS011;319;48.764;9.174;2023-09-19T16:06:07;9.30;;;9.10;;
673;SDS011;319;48.764;9.174;2023-09-19T16:08:35;8.07;;;7.87;;
673;SDS011;319;48.764;9.174;2023-09-19T16:11:04;8.90;;;8.70;;
673;SDS011;319;48.764;9.174;2023-09-19T16:13:32;7.17;;;6.97;;
673;SDS011;319;48.764;9.174;2023-09-19T16:16:01;7.13;;;6.93;;
673;SDS011;319;48.764;9.174;2023-09-19T16:18:28;8.43;;;8.23;;